Terminal Aerodrome Forecast
Issued by NWS

Home | Current Version | Previous Version | Text Only | Print | Product List | Glossary On
Versions: 1 2 3 4 5 6 7 8 9 10 11 12 13 14 15
000
FTUS45 KREV 201300 AAA
TAFTVL
TAF AMD
KTVL 201300Z 2013/2112 17007KT P6SM VCSH SCT025 SCT040
     FM201600 20011G16KT P6SM SCT040 SCT080
     FM202000 20011KT P6SM SCT060 SCT180
     FM210200 19006KT P6SM SCT180=

USA.gov is the U.S. government's official web portal to all federal, state and local government web resources and services.